Time;durP1;ratioP1;P1;durP2;ratioP2;P2;SDS_P1;SDS_P2;PMS_P1;PMS_P2;Temp;Humidity;BMP_temperature;BMP_pressure;BME280_temperature;BME280_humidity;BME280_pressure;Samples;Min_cycle;Max_cycle;Signal;HPM_P1;HPM_P2
2023/01/05 00:02:15;;;;;;;26.83;5.40;;;;;;;9.44;100.00;101682.25;5070792;28;20111;-80
2023/01/05 00:04:40;;;;;;;34.50;5.88;;;;;;;9.45;100.00;101677.03;5070163;28;20025;-80
2023/01/05 00:07:05;;;;;;;29.73;4.97;;;;;;;9.39;100.00;101679.69;5063560;28;20424;-80
2023/01/05 00:09:30;;;;;;;31.67;5.30;;;;;;;9.36;100.00;101687.50;5069822;28;20061;-80
2023/01/05 00:23:02;;;;;;;33.97;5.68;;;;;;;9.17;100.00;101673.69;5071835;28;20435;-80
2023/01/05 00:25:30;;;;;;;29.77;5.90;;;;;;;9.16;100.00;101687.59;5067859;28;20112;-80
2023/01/05 00:27:57;;;;;;;23.25;5.07;;;;;;;9.12;100.00;101691.06;5067466;28;20048;-80
2023/01/05 00:30:26;;;;;;;28.17;4.63;;;;;;;9.07;100.00;101695.41;5063173;28;20056;-80
2023/01/05 00:32:51;;;;;;;24.67;5.40;;;;;;;8.97;100.00;101692.00;5068533;28;20021;-80
2023/01/05 00:35:17;;;;;;;27.17;5.20;;;;;;;8.98;100.00;101683.31;5064267;28;20028;-80
2023/01/05 00:37:44;;;;;;;25.98;4.88;;;;;;;8.98;100.00;101685.91;5069125;28;20122;-80
2023/01/05 00:40:12;;;;;;;28.75;5.07;;;;;;;9.03;100.00;101686.78;5070457;28;20033;-80
2023/01/05 00:42:38;;;;;;;28.33;4.78;;;;;;;9.01;100.00;101687.63;5069822;28;20020;-80
2023/01/05 00:45:08;;;;;;;31.17;5.55;;;;;;;8.89;100.00;101672.94;5073420;28;20090;-80
2023/01/05 00:47:33;;;;;;;31.63;5.47;;;;;;;8.84;100.00;101690.28;5070816;28;20033;-80
2023/01/05 00:49:59;;;;;;;31.55;5.70;;;;;;;8.88;100.00;101690.28;5056394;28;20105;-79
2023/01/05 00:52:24;;;;;;;27.70;6.32;;;;;;;8.83;100.00;101697.22;5072078;28;20048;-79
2023/01/05 00:54:49;;;;;;;29.67;5.63;;;;;;;8.89;100.00;101707.63;5072487;28;20029;-79
2023/01/05 00:57:14;;;;;;;36.30;7.03;;;;;;;8.76;100.00;101686.84;5071652;28;20078;-80
2023/01/05 00:59:40;;;;;;;27.00;5.22;;;;;;;8.65;100.00;101685.13;5072712;28;20040;-80
2023/01/05 01:02:06;;;;;;;28.30;4.60;;;;;;;8.67;100.00;101695.53;5073038;28;20032;-80
2023/01/05 01:04:33;;;;;;;29.27;4.82;;;;;;;8.59;100.00;101703.34;5068099;28;20062;-80
2023/01/05 01:06:58;;;;;;;24.33;4.97;;;;;;;8.60;100.00;101707.69;5057972;28;20124;-80
2023/01/05 01:09:24;;;;;;;29.67;5.88;;;;;;;8.58;100.00;101709.41;5070332;28;20107;-79
2023/01/05 01:11:49;;;;;;;25.42;5.35;;;;;;;8.53;100.00;101700.72;5067549;28;20020;-80
2023/01/05 01:14:15;;;;;;;30.92;5.53;;;;;;;8.49;100.00;101706.81;5070988;28;20029;-80
2023/01/05 01:16:41;;;;;;;23.60;4.65;;;;;;;8.46;100.00;101722.41;5064595;28;20021;-80
2023/01/05 01:19:07;;;;;;;33.45;6.10;;;;;;;8.41;100.00;101705.97;5061997;28;20032;-80
2023/01/05 01:21:33;;;;;;;37.95;5.85;;;;;;;8.32;100.00;101692.94;5069198;28;20035;-80
2023/01/05 01:23:59;;;;;;;30.70;5.32;;;;;;;8.33;100.00;101718.06;5072277;28;20028;-80
2023/01/05 01:26:24;;;;;;;33.50;6.38;;;;;;;8.29;100.00;101718.94;5064931;28;20044;-80
2023/01/05 01:28:49;;;;;;;27.75;5.40;;;;;;;8.19;100.00;101705.94;5071169;28;20028;-80
2023/01/05 01:31:15;;;;;;;30.38;5.68;;;;;;;8.26;100.00;101729.31;5065291;28;20115;-80
2023/01/05 01:33:40;;;;;;;31.85;5.43;;;;;;;8.17;100.00;101715.47;5067382;28;20116;-80
2023/01/05 01:36:07;;;;;;;31.83;6.13;;;;;;;8.21;100.00;101726.72;5072248;28;20111;-79
2023/01/05 01:38:32;;;;;;;34.78;6.38;;;;;;;8.20;100.00;101738.81;5067320;28;20480;-79
2023/01/05 01:40:58;;;;;;;32.55;5.90;;;;;;;8.24;100.00;101742.31;5072736;28;20032;-79
2023/01/05 01:43:41;;;;;;;36.55;5.82;;;;;;;8.29;100.00;101748.38;5070961;28;20025;-80
2023/01/05 01:46:06;;;;;;;27.00;6.40;;;;;;;8.30;100.00;101733.63;5069700;28;20037;-79
2023/01/05 01:48:32;;;;;;;30.60;5.85;;;;;;;8.35;100.00;101737.13;5069178;28;20025;-80
2023/01/05 01:51:05;;;;;;;33.22;5.97;;;;;;;8.42;100.00;101731.06;5062881;28;20472;-80
2023/01/05 01:53:37;;;;;;;32.03;5.90;;;;;;;8.41;100.00;101737.16;5065972;28;20034;-80
2023/01/05 01:56:06;;;;;;;30.15;5.63;;;;;;;8.36;100.00;101733.63;5068552;28;20032;-80
2023/01/05 01:58:32;;;;;;;28.40;5.78;;;;;;;8.42;100.00;101731.06;5065113;28;20020;-80
2023/01/05 02:01:02;;;;;;;28.58;4.78;;;;;;;8.51;100.00;101736.28;5061070;28;20086;-80
2023/01/05 02:03:28;;;;;;;29.20;5.30;;;;;;;8.51;100.00;101738.00;5054996;28;20024;-80
2023/01/05 02:05:54;;;;;;;29.55;6.22;;;;;;;8.57;100.00;101744.06;5071405;28;20032;-80
2023/01/05 02:08:24;;;;;;;30.88;5.68;;;;;;;8.55;100.00;101743.19;5057782;28;20436;-80
2023/01/05 02:11:01;;;;;;;29.88;5.53;;;;;;;8.55;100.00;101745.78;5062173;28;20032;-80
2023/01/05 02:14:01;;;;;;;31.02;6.63;;;;;;;8.48;100.00;101728.47;5066014;28;20487;-80
2023/01/05 02:16:54;;;;;;;27.13;5.25;;;;;;;8.57;100.00;101751.00;5071247;28;20035;-80
2023/01/05 02:19:58;;;;;;;40.88;6.00;;;;;;;8.60;100.00;101754.47;5071611;28;20040;-80
2023/01/05 02:22:38;;;;;;;31.03;5.73;;;;;;;8.63;100.00;101757.06;5035379;28;20472;-80
2023/01/05 02:25:36;;;;;;;32.03;5.38;;;;;;;8.63;100.00;101749.28;5074939;28;20528;-79
2023/01/05 02:28:25;;;;;;;29.85;5.75;;;;;;;8.67;100.00;101752.72;5065092;28;20021;-80
2023/01/05 02:31:05;;;;;;;32.78;6.45;;;;;;;8.68;100.00;101744.91;5063385;28;20047;-80
2023/01/05 02:33:57;;;;;;;33.63;5.85;;;;;;;8.72;100.00;101756.16;5067036;28;20392;-79
2023/01/05 02:36:33;;;;;;;31.60;5.35;;;;;;;8.73;100.00;101754.44;5070904;28;20082;-80
2023/01/05 02:39:22;;;;;;;30.88;5.40;;;;;;;8.79;100.00;101757.03;5073187;28;20024;-80
2023/01/05 02:42:03;;;;;;;24.67;5.55;;;;;;;8.78;100.00;101752.72;5069506;28;20381;-80
2023/01/05 02:44:30;;;;;;;39.33;6.35;;;;;;;8.85;100.00;101757.03;5074949;28;20021;-80
2023/01/05 02:47:26;;;;;;;32.78;5.70;;;;;;;8.88;100.00;101755.28;5077955;28;20473;-80
2023/01/05 02:50:13;;;;;;;24.85;5.38;;;;;;;8.88;100.00;101762.22;5060943;28;20035;-80
2023/01/05 02:52:46;;;;;;;30.92;4.75;;;;;;;8.90;100.00;101761.34;5076540;28;20376;-80
2023/01/05 02:55:16;;;;;;;32.72;5.32;;;;;;;8.85;100.00;101754.41;5066045;28;20027;-80
2023/01/05 02:58:01;;;;;;;30.58;5.88;;;;;;;8.91;100.00;101747.47;5069859;28;20032;-80
2023/01/05 03:00:38;;;;;;;36.28;5.60;;;;;;;8.94;100.00;101754.41;5073064;28;20475;-80
2023/01/05 03:03:12;;;;;;;30.00;5.10;;;;;;;8.96;100.00;101763.09;5070506;28;20539;-80
2023/01/05 03:05:43;;;;;;;30.25;5.43;;;;;;;8.96;100.00;101768.28;5067305;28;20126;-80
2023/01/05 03:08:20;;;;;;;29.83;6.50;;;;;;;8.99;100.00;101762.19;5073622;28;20138;-80
2023/01/05 03:13:41;;;;;;;29.02;5.43;;;;;;;8.99;100.00;101770.88;5076824;28;20040;-80
2023/01/05 03:16:09;;;;;;;30.98;5.18;;;;;;;8.85;100.00;101770.03;5075789;28;20025;-80
2023/01/05 03:19:34;;;;;;;30.33;5.38;;;;;;;8.67;100.00;101764.00;5075041;28;20035;-80
2023/01/05 03:21:23;;;;;;;30.88;5.70;;;;;;;8.67;100.00;101773.53;5066091;28;20054;-80
2023/01/05 03:37:54;;;;;;;28.27;5.55;;;;;;;8.95;100.00;101770.88;5071421;28;20035;-80
2023/01/05 03:40:32;;;;;;;28.63;5.95;;;;;;;9.03;100.00;101784.75;5074483;28;20416;-79
2023/01/05 03:42:58;;;;;;;32.10;5.50;;;;;;;9.07;100.00;101771.72;5074253;28;20103;-80
2023/01/05 03:45:31;;;;;;;25.60;5.30;;;;;;;9.06;100.00;101763.94;5071374;28;20413;-80
2023/01/05 03:47:56;;;;;;;26.00;5.15;;;;;;;9.08;100.00;101775.19;5069942;28;20024;-79
2023/01/05 03:50:21;;;;;;;33.40;5.28;;;;;;;9.03;100.00;101774.34;5070417;28;20036;-80
2023/01/05 03:52:47;;;;;;;29.50;6.18;;;;;;;9.15;100.00;101779.50;5060258;28;20028;-80
2023/01/05 03:55:12;;;;;;;32.47;5.43;;;;;;;9.11;100.00;101776.03;5062827;28;20032;-80
2023/01/05 03:57:37;;;;;;;27.80;5.25;;;;;;;9.15;100.00;101776.88;5061344;28;20527;-80
2023/01/05 04:00:04;;;;;;;28.55;4.82;;;;;;;9.11;100.00;101773.44;5066993;28;20565;-80
2023/01/05 04:02:30;;;;;;;26.58;5.35;;;;;;;9.19;100.00;101785.56;5069006;28;20477;-80
2023/01/05 04:04:55;;;;;;;31.40;5.53;;;;;;;9.16;100.00;101775.19;5074551;28;20028;-80
2023/01/05 04:07:20;;;;;;;27.30;4.95;;;;;;;9.19;100.00;101776.03;5069374;28;20083;-80
2023/01/05 04:09:46;;;;;;;24.13;5.75;;;;;;;9.27;100.00;101789.00;5072926;28;20056;-80
2023/01/05 04:12:11;;;;;;;32.45;5.93;;;;;;;9.28;100.00;101785.53;5069522;28;20366;-80
2023/01/05 04:14:36;;;;;;;26.67;5.32;;;;;;;9.28;100.00;101782.94;5060443;28;20054;-80
2023/01/05 04:17:01;;;;;;;27.63;4.82;;;;;;;9.28;100.00;101778.59;5067098;28;20020;-80
2023/01/05 04:19:27;;;;;;;28.58;5.22;;;;;;;9.21;100.00;101779.47;5068934;28;20039;-80
2023/01/05 04:21:52;;;;;;;32.85;5.18;;;;;;;9.22;100.00;101789.03;5072970;28;20131;-80
2023/01/05 04:24:17;;;;;;;27.30;5.57;;;;;;;9.20;100.00;101787.31;5071653;28;20028;-80
2023/01/05 04:26:43;;;;;;;27.52;5.28;;;;;;;9.26;100.00;101802.91;5070144;28;20112;-80
2023/01/05 04:29:10;;;;;;;34.55;5.28;;;;;;;9.27;100.00;101799.41;5068121;28;20484;-80
2023/01/05 04:31:35;;;;;;;28.85;5.63;;;;;;;9.30;100.00;101800.28;5069529;28;20040;-79
2023/01/05 04:34:00;;;;;;;32.13;5.65;;;;;;;9.33;100.00;101789.00;5068425;28;20080;-80
2023/01/05 04:36:26;;;;;;;27.67;5.47;;;;;;;9.30;100.00;101774.25;5055229;28;20040;-80
2023/01/05 04:38:51;;;;;;;26.27;5.28;;;;;;;9.33;100.00;101787.25;5073041;28;20028;-80
2023/01/05 04:41:16;;;;;;;30.77;5.28;;;;;;;9.33;100.00;101787.25;5071749;28;20025;-80
2023/01/05 04:43:42;;;;;;;22.83;4.50;;;;;;;9.36;100.00;101792.44;5061614;28;20480;-80
2023/01/05 04:46:07;;;;;;;28.13;5.18;;;;;;;9.33;100.00;101791.59;5073393;28;20038;-80
2023/01/05 04:48:32;;;;;;;29.02;4.97;;;;;;;9.38;100.00;101787.22;5069052;28;20021;-80
2023/01/05 04:50:58;;;;;;;33.92;5.10;;;;;;;9.38;100.00;101790.72;5060853;28;20052;-80
2023/01/05 04:53:24;;;;;;;27.50;5.22;;;;;;;9.34;100.00;101785.50;5064242;28;20033;-80
2023/01/05 04:55:50;;;;;;;32.25;5.80;;;;;;;9.44;100.00;101796.75;5058101;28;20465;-80
2023/01/05 04:58:16;;;;;;;28.45;5.07;;;;;;;9.42;100.00;101791.56;5064095;28;20499;-80
2023/01/05 05:00:41;;;;;;;30.30;6.03;;;;;;;9.36;100.00;101784.66;5066679;28;20028;-80
2023/01/05 05:03:06;;;;;;;28.35;6.50;;;;;;;9.45;100.00;101804.59;5062194;28;20365;-80
2023/01/05 05:05:32;;;;;;;28.20;5.50;;;;;;;9.44;100.00;101810.63;5056874;28;20033;-80
2023/01/05 05:07:58;;;;;;;25.77;5.32;;;;;;;9.42;100.00;101804.59;5071357;28;20068;-80
2023/01/05 05:10:23;;;;;;;34.50;5.60;;;;;;;9.47;100.00;101802.81;5071490;28;20055;-80
2023/01/05 05:12:48;;;;;;;25.42;5.00;;;;;;;9.44;100.00;101800.22;5069914;28;20024;-80
2023/01/05 05:15:14;;;;;;;26.08;5.78;;;;;;;9.45;100.00;101809.78;5071475;28;20040;-80
2023/01/05 05:17:39;;;;;;;26.08;5.57;;;;;;;9.50;100.00;101820.16;5068665;28;20024;-80
2023/01/05 05:20:05;;;;;;;25.95;4.97;;;;;;;9.48;100.00;101820.19;5072259;28;20032;-80
2023/01/05 05:22:31;;;;;;;26.85;5.47;;;;;;;9.44;100.00;101800.22;5069082;28;20025;-80
2023/01/05 05:24:56;;;;;;;26.58;4.72;;;;;;;9.50;100.00;101815.81;5071514;28;20020;-80
2023/01/05 05:27:21;;;;;;;29.63;5.28;;;;;;;9.55;100.00;101827.09;5070155;28;20029;-80
2023/01/05 05:29:47;;;;;;;29.55;5.18;;;;;;;9.53;100.00;101818.41;5070830;28;20051;-80
2023/01/05 05:32:12;;;;;;;36.97;5.65;;;;;;;9.49;100.00;101821.91;5068666;28;20016;-80
2023/01/05 05:34:37;;;;;;;29.02;5.78;;;;;;;9.46;100.00;101821.06;5072691;28;20349;-79
2023/01/05 05:37:03;;;;;;;34.40;6.68;;;;;;;9.44;100.00;101817.59;5072044;28;20481;-80
2023/01/05 05:39:28;;;;;;;37.17;5.25;;;;;;;9.51;100.00;101835.75;5069237;28;20471;-79
2023/01/05 05:41:53;;;;;;;38.58;6.13;;;;;;;9.50;100.00;101836.66;5071742;28;20032;-79
2023/01/05 05:44:18;;;;;;;30.35;6.55;;;;;;;9.49;100.00;101834.06;5064240;28;20036;-79
2023/01/05 05:46:44;;;;;;;33.97;5.93;;;;;;;9.48;100.00;101832.31;5067033;28;20021;-80
2023/01/05 05:49:09;;;;;;;27.67;5.35;;;;;;;9.46;100.00;101844.47;5071121;28;20039;-80
2023/01/05 05:51:34;;;;;;;31.45;5.35;;;;;;;9.44;100.00;101841.88;5070740;28;20040;-80
2023/01/05 05:54:00;;;;;;;29.10;5.72;;;;;;;9.47;100.00;101844.47;5063562;28;20029;-80
2023/01/05 05:56:25;;;;;;;32.28;5.43;;;;;;;9.44;100.00;101848.81;5070455;28;20144;-80
2023/01/05 05:58:51;;;;;;;39.10;6.65;;;;;;;9.48;100.00;101855.75;5068272;28;20522;-80
2023/01/05 06:01:16;;;;;;;32.17;5.38;;;;;;;9.44;100.00;101854.88;5069885;28;20039;-80
2023/01/05 06:03:41;;;;;;;33.17;6.15;;;;;;;9.38;100.00;101853.19;5066005;28;20527;-80
2023/01/05 06:06:07;;;;;;;32.10;6.45;;;;;;;9.43;100.00;101878.31;5067159;28;20071;-80
2023/01/05 06:08:32;;;;;;;31.10;6.22;;;;;;;9.45;100.00;101863.56;5071374;28;20456;-79
2023/01/05 06:10:58;;;;;;;35.30;5.80;;;;;;;9.44;100.00;101874.84;5072015;28;20415;-80
2023/01/05 06:13:23;;;;;;;30.52;5.75;;;;;;;9.38;100.00;101867.91;5068411;28;20107;-80
2023/01/05 06:15:49;;;;;;;29.83;5.00;;;;;;;9.45;100.00;101872.25;5070202;28;20033;-80
2023/01/05 06:18:15;;;;;;;32.83;5.70;;;;;;;9.41;100.00;101867.03;5064968;28;20418;-80
2023/01/05 06:20:40;;;;;;;34.05;5.60;;;;;;;9.36;100.00;101869.66;5071251;28;20044;-80
2023/01/05 06:23:06;;;;;;;34.13;6.22;;;;;;;9.34;100.00;101876.59;5069592;28;20028;-80
2023/01/05 06:25:31;;;;;;;34.88;5.45;;;;;;;9.40;100.00;101884.41;5070180;28;20031;-80
2023/01/05 06:27:57;;;;;;;38.33;6.20;;;;;;;9.35;100.00;101887.03;5068141;28;20024;-80
2023/01/05 06:30:22;;;;;;;29.60;5.90;;;;;;;9.42;100.00;101900.00;5070457;28;20163;-80
2023/01/05 06:32:47;;;;;;;36.40;6.35;;;;;;;9.40;100.00;101888.75;5069658;28;20028;-80
2023/01/05 06:35:12;;;;;;;26.83;4.78;;;;;;;9.42;100.00;101890.47;5066134;28;20021;-80
2023/01/05 06:37:38;;;;;;;32.75;5.75;;;;;;;9.41;100.00;101890.47;5057970;28;20492;-80
2023/01/05 06:40:04;;;;;;;35.08;6.22;;;;;;;9.42;100.00;101894.78;5064671;28;20460;-80
2023/01/05 06:42:29;;;;;;;30.33;5.65;;;;;;;9.44;100.00;101895.66;5069285;28;20445;-80
2023/01/05 06:44:54;;;;;;;30.08;5.57;;;;;;;9.44;100.00;101904.34;5066234;28;20028;-80
2023/01/05 06:47:20;;;;;;;32.75;7.03;;;;;;;9.37;100.00;101906.09;5056852;28;20075;-80
2023/01/05 06:49:45;;;;;;;35.15;6.30;;;;;;;9.40;100.00;101923.44;5071099;28;20025;-80
2023/01/05 06:52:10;;;;;;;36.75;7.57;;;;;;;9.38;100.00;101919.97;5060911;28;20051;-78
2023/01/05 06:54:36;;;;;;;30.27;5.57;;;;;;;9.27;100.00;101914.78;5072120;28;20028;-79
2023/01/05 06:57:01;;;;;;;38.15;6.90;;;;;;;9.08;100.00;101916.50;5082061;28;20067;-79
2023/01/05 06:59:26;;;;;;;39.10;7.57;;;;;;;9.03;100.00;101923.47;5071277;28;20028;-79
2023/01/05 07:01:52;;;;;;;36.38;6.45;;;;;;;9.03;100.00;101931.28;5070466;28;20086;-79
2023/01/05 07:04:17;;;;;;;35.67;7.30;;;;;;;9.08;100.00;101932.13;5073071;28;20028;-79
2023/01/05 07:06:42;;;;;;;37.38;7.35;;;;;;;9.10;100.00;101927.78;5061097;28;20052;-79
2023/01/05 07:09:08;;;;;;;39.75;7.60;;;;;;;9.12;100.00;101930.38;5068695;28;20029;-80
2023/01/05 07:11:33;;;;;;;35.97;6.68;;;;;;;9.17;100.00;101935.59;5071598;28;20021;-82
2023/01/05 07:13:58;;;;;;;34.72;6.03;;;;;;;9.19;100.00;101932.16;5074153;28;20024;-78
2023/01/05 07:16:24;;;;;;;38.20;6.80;;;;;;;9.16;100.00;101926.06;5067605;28;20616;-78
2023/01/05 07:18:49;;;;;;;42.65;7.05;;;;;;;9.02;100.00;101903.50;5074973;28;20028;-77
2023/01/05 07:21:14;;;;;;;35.60;5.75;;;;;;;9.23;100.00;101927.81;5073662;28;20027;-78
2023/01/05 07:23:39;;;;;;;37.85;6.45;;;;;;;9.22;100.00;101920.84;5071562;28;20028;-77
2023/01/05 07:26:07;;;;;;;40.40;6.05;;;;;;;9.23;100.00;101926.06;5074563;28;20384;-78
2023/01/05 07:28:33;;;;;;;39.03;7.13;;;;;;;9.18;100.00;101925.19;5072824;28;20058;-77
2023/01/05 07:30:58;;;;;;;35.30;6.60;;;;;;;9.23;100.00;101943.41;5069729;28;20036;-78
2023/01/05 07:33:24;;;;;;;37.42;6.15;;;;;;;9.21;100.00;101942.53;5070105;28;20021;-78
2023/01/05 07:35:49;;;;;;;35.15;7.57;;;;;;;9.17;100.00;101944.28;5060983;28;20457;-78
2023/01/05 07:38:14;;;;;;;37.15;6.45;;;;;;;9.09;100.00;101923.47;5062166;28;20036;-79
2023/01/05 07:40:40;;;;;;;36.10;7.07;;;;;;;9.24;100.00;101945.13;5072987;28;20041;-78
2023/01/05 07:43:05;;;;;;;43.78;7.63;;;;;;;9.26;100.00;101954.69;5072515;28;20070;-79
2023/01/05 07:45:30;;;;;;;39.85;6.68;;;;;;;9.27;100.00;101956.41;5071719;28;20099;-77
2023/01/05 07:47:56;;;;;;;37.25;5.88;;;;;;;9.31;100.00;101971.16;5074474;28;20041;-77
2023/01/05 07:50:21;;;;;;;41.83;6.85;;;;;;;9.31;100.00;101968.53;5070377;28;20475;-78
2023/01/05 07:52:47;;;;;;;33.03;5.60;;;;;;;9.29;100.00;101970.31;5061440;28;20400;-77
2023/01/05 07:55:12;;;;;;;32.40;5.95;;;;;;;9.34;100.00;101957.28;5066195;28;20047;-77
2023/01/05 07:57:38;;;;;;;37.80;7.28;;;;;;;9.26;100.00;101965.09;5065188;28;20380;-78
2023/01/05 08:00:05;;;;;;;39.92;7.82;;;;;;;9.24;100.00;101959.00;5064152;28;20063;-77
2023/01/05 08:02:30;;;;;;;32.67;6.95;;;;;;;9.28;100.00;101962.47;5062313;28;20095;-77
2023/01/05 08:04:55;;;;;;;39.42;7.18;;;;;;;9.26;100.00;101972.03;5065962;28;20059;-78
2023/01/05 08:07:20;;;;;;;31.27;6.25;;;;;;;9.23;100.00;101975.50;5068517;28;20107;-78
2023/01/05 08:12:30;;;;;;;40.42;6.43;;;;;;;9.29;100.00;101991.13;5067773;28;20059;-77
2023/01/05 08:14:56;;;;;;;37.22;7.57;;;;;;;9.30;100.00;101978.97;5068716;28;20480;-77
2023/01/05 08:17:22;;;;;;;27.65;6.13;;;;;;;9.34;100.00;101984.16;5068415;28;20047;-77
2023/01/05 08:19:47;;;;;;;36.70;6.47;;;;;;;9.32;100.00;101977.25;5065267;28;20500;-78
2023/01/05 08:22:12;;;;;;;39.00;8.02;;;;;;;9.34;100.00;101980.69;5065619;28;20225;-77
2023/01/05 08:24:38;;;;;;;39.30;6.22;;;;;;;9.34;100.00;101984.16;5063060;28;20033;-78
2023/01/05 08:27:03;;;;;;;37.90;7.80;;;;;;;9.38;100.00;101998.03;5064586;28;20033;-79
2023/01/05 08:29:28;;;;;;;33.47;6.38;;;;;;;9.42;100.00;101991.09;5060652;28;20490;-78
2023/01/05 08:31:54;;;;;;;32.65;6.60;;;;;;;9.37;100.00;102004.13;5071928;28;20062;-78
2023/01/05 08:34:19;;;;;;;35.47;6.55;;;;;;;9.40;100.00;102003.25;5068039;28;20415;-78
2023/01/05 08:36:45;;;;;;;39.97;6.95;;;;;;;9.39;100.00;102002.41;5060381;28;20024;-78
2023/01/05 08:39:11;;;;;;;33.50;6.18;;;;;;;9.41;100.00;101990.22;5054433;28;20025;-78
2023/01/05 08:41:38;;;;;;;39.35;7.40;;;;;;;9.41;100.00;102005.84;5064892;28;20045;-78
2023/01/05 08:44:11;;;;;;;32.92;6.90;;;;;;;9.44;100.00;102012.78;5069867;28;20531;-78
2023/01/05 08:46:37;;;;;;;30.70;6.88;;;;;;;9.38;100.00;102009.34;5064672;28;20040;-78
2023/01/05 08:49:05;;;;;;;30.10;5.95;;;;;;;9.43;100.00;102022.34;5072094;28;20013;-78
2023/01/05 08:51:31;;;;;;;32.22;6.40;;;;;;;9.44;100.00;102029.28;5071676;28;20145;-78
2023/01/05 08:53:57;;;;;;;35.85;6.72;;;;;;;9.44;100.00;102025.81;5069097;28;20025;-78
2023/01/05 08:56:26;;;;;;;37.70;6.75;;;;;;;9.48;100.00;102044.06;5061165;28;20025;-78
2023/01/05 08:58:54;;;;;;;36.55;6.03;;;;;;;9.49;100.00;102031.91;5068873;28;20028;-78
2023/01/05 09:01:23;;;;;;;37.10;7.78;;;;;;;9.55;100.00;102034.50;5062770;28;20029;-77
2023/01/05 09:03:48;;;;;;;37.05;6.50;;;;;;;9.55;100.00;102030.16;5057650;28;20025;-78
2023/01/05 09:06:13;;;;;;;34.75;6.45;;;;;;;9.60;100.00;102044.03;5057213;28;20047;-78
2023/01/05 09:08:40;;;;;;;33.63;7.13;;;;;;;9.64;100.00;102037.06;5058608;28;20040;-78
2023/01/05 09:11:17;;;;;;;36.22;6.15;;;;;;;9.66;100.00;102044.91;5062376;28;20029;-78
2023/01/05 09:13:48;;;;;;;42.65;7.45;;;;;;;9.65;100.00;102033.63;5066971;28;20023;-78
2023/01/05 09:16:17;;;;;;;34.83;6.57;;;;;;;9.68;100.00;102054.47;5068271;28;20032;-77
2023/01/05 09:18:43;;;;;;;37.55;6.82;;;;;;;9.65;100.00;102035.38;5058322;28;20029;-77
2023/01/05 09:21:09;;;;;;;36.15;6.60;;;;;;;9.67;100.00;102049.22;5070338;28;20035;-77
2023/01/05 09:23:35;;;;;;;35.42;7.30;;;;;;;9.72;100.00;102047.50;5062306;28;20469;-79
2023/01/05 09:26:05;;;;;;;37.75;6.28;;;;;;;9.74;100.00;102051.81;5062043;28;20029;-76
2023/01/05 09:28:31;;;;;;;39.20;7.18;;;;;;;9.66;100.00;102050.97;5061111;28;20032;-76
2023/01/05 09:30:56;;;;;;;41.13;7.05;;;;;;;9.68;100.00;102058.78;5059845;28;20028;-76
2023/01/05 09:33:22;;;;;;;33.95;5.95;;;;;;;9.60;100.00;102053.56;5057611;28;20025;-76
2023/01/05 09:35:57;;;;;;;32.78;7.20;;;;;;;9.69;100.00;102057.94;5067862;28;20115;-76
2023/01/05 09:38:23;;;;;;;38.55;6.93;;;;;;;9.66;100.00;102058.78;5068657;28;20024;-77
2023/01/05 09:40:52;;;;;;;39.33;7.40;;;;;;;9.72;100.00;102082.22;5064597;28;20380;-77
2023/01/05 09:43:26;;;;;;;43.42;7.43;;;;;;;9.73;100.00;102076.13;5059521;28;20499;-76
2023/01/05 09:45:53;;;;;;;41.40;7.07;;;;;;;9.77;100.00;102079.59;5062143;28;20029;-76
2023/01/05 09:48:19;;;;;;;32.45;7.10;;;;;;;9.83;100.00;102077.00;5059076;28;20039;-75
2023/01/05 09:50:48;;;;;;;35.85;6.70;;;;;;;9.92;100.00;102084.81;5057104;28;20025;-75
2023/01/05 09:53:17;;;;;;;33.92;6.45;;;;;;;9.95;100.00;102086.56;5059553;28;20392;-76
2023/01/05 09:55:45;;;;;;;37.10;5.82;;;;;;;9.98;100.00;102077.00;5063860;28;20380;-75
2023/01/05 09:58:20;;;;;;;37.42;7.60;;;;;;;10.03;100.00;102090.00;5059616;28;20025;-76
2023/01/05 10:01:06;;;;;;;45.22;7.07;;;;;;;9.93;100.00;102083.94;5070038;28;20075;-76
2023/01/05 10:03:37;;;;;;;35.15;8.45;;;;;;;9.96;100.00;102093.50;5059740;28;20051;-77
2023/01/05 10:06:05;;;;;;;33.17;6.82;;;;;;;9.97;100.00;102090.91;5060572;28;20054;-76
2023/01/05 10:08:45;;;;;;;38.95;6.18;;;;;;;10.03;100.00;102105.63;5068659;28;20025;-76
2023/01/05 10:14:22;;;;;;;33.67;7.38;;;;;;;10.08;100.00;102101.31;5062442;28;20125;-76
2023/01/05 10:16:47;;;;;;;35.67;8.00;;;;;;;9.97;100.00;102090.91;5062322;28;20039;-76
2023/01/05 10:19:15;;;;;;;36.60;7.50;;;;;;;10.07;100.00;102102.16;5069807;28;20025;-76
2023/01/05 10:22:12;;;;;;;35.65;6.25;;;;;;;10.12;100.00;102107.38;5069384;28;20028;-75
2023/01/05 10:25:17;;;;;;;37.55;6.65;;;;;;;10.15;100.00;102104.75;5064484;28;20780;-76
2023/01/05 10:27:47;;;;;;;;;;;;;;;10.17;100.00;102114.31;5066678;28;20040;-76
2023/01/05 10:30:22;;;;;;;39.13;7.70;;;;;;;10.17;100.00;102110.81;5059836;28;20399;-75
2023/01/05 10:32:50;;;;;;;33.45;6.75;;;;;;;10.21;100.00;102120.41;5062601;28;20039;-76
2023/01/05 10:35:18;;;;;;;37.47;7.50;;;;;;;10.18;100.00;102118.66;5066915;28;20133;-76
2023/01/05 10:38:13;;;;;;;42.55;7.75;;;;;;;10.13;100.00;102111.72;5069491;28;20441;-76
2023/01/05 10:41:05;;;;;;;35.72;8.23;;;;;;;10.13;100.00;102107.34;5067428;28;20033;-75
2023/01/05 10:43:56;;;;;;;37.67;7.13;;;;;;;10.09;100.00;102127.34;5066182;28;20037;-76
2023/01/05 10:46:21;;;;;;;38.17;7.32;;;;;;;10.07;100.00;102118.69;5063403;28;20032;-76
2023/01/05 10:48:47;;;;;;;31.30;7.05;;;;;;;10.03;100.00;102105.63;5067281;28;20075;-76
2023/01/05 10:51:12;;;;;;;32.75;7.57;;;;;;;10.08;100.00;102104.78;5068662;28;20444;-76
2023/01/05 10:53:40;;;;;;;36.25;7.68;;;;;;;10.12;100.00;102128.22;5063550;28;20499;-76
2023/01/05 10:56:14;;;;;;;37.97;6.47;;;;;;;10.06;100.00;102111.72;5072309;28;20488;-76
2023/01/05 10:58:42;;;;;;;35.90;7.30;;;;;;;9.96;100.00;102117.81;5065474;28;20067;-76
2023/01/05 11:01:25;;;;;;;40.92;6.82;;;;;;;9.97;100.00;102127.38;5066055;28;20044;-76
2023/01/05 11:04:06;;;;;;;29.95;6.40;;;;;;;9.96;100.00;102111.72;5070444;28;20047;-75
2023/01/05 11:06:33;;;;;;;40.50;7.40;;;;;;;9.97;100.00;102116.97;5070577;28;20047;-75
2023/01/05 11:09:22;;;;;;;32.63;7.32;;;;;;;10.05;100.00;102133.44;5060254;28;20029;-76
2023/01/05 11:12:04;;;;;;;34.53;6.93;;;;;;;10.09;100.00;102123.88;5068504;28;20032;-76
2023/01/05 11:14:35;;;;;;;35.83;6.80;;;;;;;10.20;100.00;102129.06;5070606;28;20032;-76
2023/01/05 11:17:04;;;;;;;31.95;7.78;;;;;;;10.23;100.00;102126.47;5069292;28;20055;-76
2023/01/05 11:19:34;;;;;;;39.53;7.20;;;;;;;10.26;100.00;102122.13;5066426;28;20111;-76
2023/01/05 11:21:59;;;;;;;41.13;7.70;;;;;;;10.29;100.00;102121.28;5071066;28;20030;-77
2023/01/05 11:24:33;;;;;;;39.97;7.55;;;;;;;10.41;100.00;102115.19;5065750;28;20104;-77
2023/01/05 11:27:21;;;;;;;33.13;7.35;;;;;;;10.39;100.00;102127.34;5068194;28;20037;-77
2023/01/05 11:30:17;;;;;;;33.65;7.45;;;;;;;10.37;100.00;102116.06;5062837;28;20025;-76
2023/01/05 11:32:44;;;;;;;34.15;7.07;;;;;;;10.28;100.00;102109.13;5065377;28;20032;-77
2023/01/05 11:35:39;;;;;;;33.92;7.38;;;;;;;10.34;100.00;102116.06;5070626;28;20062;-78
2023/01/05 11:38:05;;;;;;;33.60;8.02;;;;;;;10.30;100.00;102115.22;5039755;28;20054;-77
2023/01/05 11:40:34;;;;;;;39.00;8.02;;;;;;;10.35;100.00;102113.44;5067059;28;20495;-77
2023/01/05 11:43:07;;;;;;;33.88;8.35;;;;;;;10.37;100.00;102116.06;5072475;28;20487;-77
2023/01/05 11:45:39;;;;;;;43.55;8.32;;;;;;;10.30;100.00;102104.78;5067686;28;20107;-77
2023/01/05 11:48:07;;;;;;;33.17;8.13;;;;;;;10.26;100.00;102087.38;5073329;28;20033;-77
2023/01/05 11:50:50;;;;;;;33.00;6.85;;;;;;;10.30;100.00;102096.97;5058937;28;20098;-77
2023/01/05 11:53:33;;;;;;;31.85;6.80;;;;;;;10.30;100.00;102110.00;5072226;28;20426;-77
2023/01/05 11:56:00;;;;;;;36.28;7.82;;;;;;;10.24;100.00;102094.34;5070000;28;20040;-77
2023/01/05 11:58:29;;;;;;;36.38;6.85;;;;;;;10.25;100.00;102099.53;5065130;28;20035;-78
2023/01/05 12:01:20;;;;;;;38.85;7.53;;;;;;;10.28;100.00;102098.69;5067249;28;20036;-77